createdAt,value
2023-02-28T00:00:22.699Z,-0.50
2023-02-28T00:02:52.079Z,-0.52
2023-02-28T00:05:24.118Z,-0.54
2023-02-28T00:07:54.159Z,-0.55
2023-02-28T00:10:27.667Z,-0.59
2023-02-28T00:13:01.591Z,-0.62
2023-02-28T00:15:30.265Z,-0.64
2023-02-28T00:17:58.745Z,-0.63
2023-02-28T00:20:28.048Z,-0.63
2023-02-28T00:22:56.736Z,-0.59
2023-02-28T00:25:27.881Z,-0.53
2023-02-28T00:27:56.874Z,-0.49
2023-02-28T00:30:25.152Z,-0.50
2023-02-28T00:32:54.455Z,-0.51
2023-02-28T00:35:22.968Z,-0.53
2023-02-28T00:37:51.527Z,-0.53
2023-02-28T00:42:36.618Z,-0.46
2023-02-28T00:45:06.026Z,-0.41
2023-02-28T00:47:38.601Z,-0.35
2023-02-28T00:50:09.697Z,-0.34
2023-02-28T00:52:38.841Z,-0.33
2023-02-28T00:55:07.778Z,-0.32
2023-02-28T00:57:36.223Z,-0.34
2023-02-28T01:00:06.780Z,-0.37
2023-02-28T01:02:35.548Z,-0.38
2023-02-28T01:05:07.683Z,-0.41
2023-02-28T01:07:36.403Z,-0.45
2023-02-28T01:10:05.832Z,-0.48
2023-02-28T01:12:34.229Z,-0.50
2023-02-28T01:15:03.083Z,-0.52
2023-02-28T01:17:32.218Z,-0.55
2023-02-28T01:20:03.026Z,-0.59
2023-02-28T01:22:32.015Z,-0.61
2023-02-28T01:25:01.011Z,-0.60
2023-02-28T01:27:30.314Z,-0.57
2023-02-28T01:30:03.841Z,-0.57
2023-02-28T01:32:32.203Z,-0.56
2023-02-28T01:35:00.482Z,-0.55
2023-02-28T01:37:29.381Z,-0.55
2023-02-28T01:39:58.055Z,-0.58
2023-02-28T01:42:26.845Z,-0.59
2023-02-28T01:45:24.927Z,-0.56
2023-02-28T01:47:55.765Z,-0.52
2023-02-28T01:50:26.397Z,-0.53
2023-02-28T01:52:56.243Z,-0.53
2023-02-28T01:55:29.673Z,-0.52
2023-02-28T01:58:03.009Z,-0.50
2023-02-28T02:00:31.903Z,-0.47
2023-02-28T02:03:06.318Z,-0.42
2023-02-28T02:05:35.629Z,-0.37
2023-02-28T02:08:07.952Z,-0.36
2023-02-28T02:10:43.251Z,-0.36
2023-02-28T02:13:14.715Z,-0.38
2023-02-28T02:15:55.284Z,-0.42
2023-02-28T02:18:29.893Z,-0.54
2023-02-28T02:21:13.638Z,-0.46
2023-02-28T02:24:00.657Z,-0.46
2023-02-28T02:26:35.490Z,-0.47
2023-02-28T02:29:44.217Z,-0.46
2023-02-28T02:32:18.090Z,-0.46
2023-02-28T02:35:30.870Z,-0.49
2023-02-28T02:38:23.339Z,-0.53
2023-02-28T02:41:04.685Z,-0.60
2023-02-28T02:43:37.058Z,-0.61
2023-02-28T02:46:13.646Z,-0.60
2023-02-28T02:48:42.020Z,-0.60
2023-02-28T02:51:18.752Z,-0.62
2023-02-28T02:53:52.944Z,-0.62
2023-02-28T02:56:24.670Z,-0.64
2023-02-28T02:58:53.256Z,-0.65
2023-02-28T03:01:29.154Z,-0.67
2023-02-28T03:04:06.823Z,-0.67
2023-02-28T03:06:36.427Z,-0.69
2023-02-28T03:09:06.147Z,-0.70
2023-02-28T03:11:34.521Z,-0.71
2023-02-28T03:14:31.892Z,-0.71
2023-02-28T03:17:25.148Z,-0.74
2023-02-28T03:20:06.480Z,-0.80
2023-02-28T03:22:58.789Z,-0.86
2023-02-28T03:25:32.077Z,-0.90
2023-02-28T03:28:03.844Z,-0.92
2023-02-28T03:30:41.129Z,-0.91
2023-02-28T03:33:14.017Z,-0.94
2023-02-28T03:36:04.213Z,-0.99
2023-02-28T03:38:35.471Z,-1.04
2023-02-28T03:41:19.001Z,-1.06
2023-02-28T03:43:55.059Z,-1.04
2023-02-28T03:46:26.192Z,-1.03
2023-02-28T03:49:06.165Z,-1.04
2023-02-28T03:51:36.590Z,-1.02
2023-02-28T03:54:08.524Z,-0.98
2023-02-28T03:56:44.822Z,-0.96
2023-02-28T03:59:17.810Z,-1.00
2023-02-28T04:01:47.711Z,-1.05
2023-02-28T04:04:16.977Z,-1.10
2023-02-28T04:06:51.693Z,-1.13
2023-02-28T04:09:20.147Z,-1.15
2023-02-28T04:11:53.184Z,-1.13
2023-02-28T04:14:21.517Z,-1.11
2023-02-28T04:16:49.877Z,-1.10
2023-02-28T04:19:18.279Z,-1.07
2023-02-28T04:21:48.426Z,-1.04
2023-02-28T04:24:24.463Z,-0.98
2023-02-28T04:26:56.379Z,-0.98
2023-02-28T04:29:29.627Z,-0.98
2023-02-28T04:32:02.169Z,-1.01
2023-02-28T04:34:31.650Z,-1.02
2023-02-28T04:37:16.988Z,-1.04
2023-02-28T04:39:46.409Z,-1.04
2023-02-28T04:42:16.219Z,-1.06
2023-02-28T04:44:46.336Z,-1.08
2023-02-28T04:47:15.025Z,-1.08
2023-02-28T04:49:44.128Z,-1.11
2023-02-28T04:52:12.507Z,-1.13
2023-02-28T04:54:42.934Z,-1.16
2023-02-28T04:57:11.735Z,-1.24
2023-02-28T04:59:41.128Z,-1.33
2023-02-28T05:02:10.086Z,-1.40
2023-02-28T05:04:38.640Z,-1.43
2023-02-28T05:07:07.198Z,-1.45
2023-02-28T05:09:36.089Z,-1.45
2023-02-28T05:12:08.156Z,-1.45
2023-02-28T05:14:38.285Z,-1.47
2023-02-28T05:17:06.763Z,-1.49
2023-02-28T05:19:36.786Z,-1.51
2023-02-28T05:22:05.268Z,-1.52
2023-02-28T05:24:41.330Z,-1.54
2023-02-28T05:27:10.033Z,-1.54
2023-02-28T05:29:42.914Z,-1.52
2023-02-28T05:32:14.897Z,-1.55
2023-02-28T05:34:43.370Z,-1.54
2023-02-28T05:37:15.207Z,-1.55
2023-02-28T05:39:44.029Z,-1.54
2023-02-28T05:42:14.546Z,-1.52
2023-02-28T05:44:44.770Z,-1.50
2023-02-28T05:47:16.580Z,-1.50
2023-02-28T05:49:45.334Z,-1.49
2023-02-28T05:52:15.541Z,-1.49
2023-02-28T05:54:43.930Z,-1.47
2023-02-28T05:57:19.076Z,-1.45
2023-02-28T05:59:52.986Z,-1.58
2023-02-28T06:02:21.524Z,-1.41
2023-02-28T06:04:50.061Z,-1.36
2023-02-28T06:07:18.951Z,-1.36
2023-02-28T06:09:47.738Z,-1.39
2023-02-28T06:12:16.735Z,-1.36
2023-02-28T06:14:45.117Z,-1.33
2023-02-28T06:17:18.109Z,-1.35
2023-02-28T06:19:47.615Z,-1.38
2023-02-28T06:22:16.100Z,-1.39
2023-02-28T06:24:44.589Z,-1.38
2023-02-28T06:27:13.072Z,-1.36
2023-02-28T06:29:41.390Z,-1.33
2023-02-28T06:32:10.727Z,-1.33
2023-02-28T06:34:40.575Z,-1.32
2023-02-28T06:37:09.060Z,-1.32
2023-02-28T06:39:40.512Z,-1.37
2023-02-28T06:42:09.199Z,-1.48
2023-02-28T06:44:37.579Z,-1.59
2023-02-28T06:47:06.681Z,-1.74
2023-02-28T06:49:39.982Z,-1.81
2023-02-28T06:52:11.120Z,-1.83
2023-02-28T06:54:39.709Z,-1.87
2023-02-28T06:57:08.500Z,-1.90
2023-02-28T06:59:37.704Z,-1.86
2023-02-28T07:02:08.142Z,-1.78
2023-02-28T07:04:37.045Z,-1.68
2023-02-28T07:07:08.577Z,-1.57
2023-02-28T07:09:38.903Z,-1.48
2023-02-28T07:12:07.693Z,-1.38
2023-02-28T07:14:37.946Z,-1.23
2023-02-28T07:17:08.963Z,-1.12
2023-02-28T07:19:40.373Z,-1.05
2023-02-28T07:22:08.700Z,-0.97
2023-02-28T07:24:37.185Z,-0.89
2023-02-28T07:27:05.562Z,-0.86
2023-02-28T07:29:34.762Z,-0.87
2023-02-28T07:32:03.175Z,-0.87
2023-02-28T07:34:32.141Z,-0.85
2023-02-28T07:37:01.240Z,-0.83
2023-02-28T07:39:29.629Z,-0.77
2023-02-28T07:41:58.216Z,-0.71
2023-02-28T07:44:28.041Z,-0.69
2023-02-28T07:46:56.671Z,-0.71
2023-02-28T07:49:27.403Z,-0.74
2023-02-28T07:51:56.044Z,-0.83
2023-02-28T07:54:25.762Z,-0.90
2023-02-28T07:56:54.447Z,-0.89
2023-02-28T07:59:23.545Z,-0.83
2023-02-28T08:01:52.324Z,-0.76
2023-02-28T08:04:20.821Z,-0.77
2023-02-28T08:07:00.681Z,-0.89
2023-02-28T08:09:31.206Z,-0.98
2023-02-28T08:12:02.760Z,-1.06
2023-02-28T08:14:31.550Z,-1.13
2023-02-28T08:17:00.146Z,-1.18
2023-02-28T08:19:29.546Z,-1.21
2023-02-28T08:21:58.134Z,-1.25
2023-02-28T08:24:26.717Z,-1.26
2023-02-28T08:26:56.048Z,-1.22
2023-02-28T08:29:24.934Z,-1.16
2023-02-28T08:31:53.541Z,-1.10
2023-02-28T08:34:22.286Z,-1.05
2023-02-28T08:36:50.667Z,-1.02
2023-02-28T08:39:23.047Z,-1.07
2023-02-28T08:42:02.134Z,-1.10
2023-02-28T08:44:35.436Z,-1.08
2023-02-28T08:47:03.853Z,-0.96
2023-02-28T08:49:32.449Z,-0.83
2023-02-28T08:52:01.133Z,-0.75
2023-02-28T08:54:32.685Z,-0.48
2023-02-28T08:57:01.676Z,-0.30
2023-02-28T08:59:30.584Z,-0.18
2023-02-28T09:02:04.095Z,-0.06
2023-02-28T09:04:32.767Z,0.10
2023-02-28T09:07:01.258Z,0.19
2023-02-28T09:09:29.728Z,0.23
2023-02-28T09:11:58.217Z,0.29
2023-02-28T09:14:29.767Z,0.37
2023-02-28T09:16:58.175Z,0.33
2023-02-28T09:19:26.632Z,0.21
2023-02-28T09:21:55.016Z,0.17
2023-02-28T09:24:23.605Z,0.27
2023-02-28T09:27:03.815Z,0.48
2023-02-28T09:29:34.715Z,0.83
2023-02-28T09:32:03.574Z,1.05
2023-02-28T09:34:32.801Z,1.23
2023-02-28T09:37:01.232Z,1.46
2023-02-28T09:39:30.273Z,1.63
2023-02-28T09:41:59.059Z,1.80
2023-02-28T09:44:33.424Z,2.03
2023-02-28T09:47:07.191Z,2.14
2023-02-28T09:49:44.871Z,2.02
2023-02-28T09:52:20.568Z,1.76
2023-02-28T09:54:49.030Z,1.57
2023-02-28T09:57:44.030Z,1.57
2023-02-28T10:00:26.239Z,1.72
2023-02-28T10:03:11.841Z,1.87
2023-02-28T10:06:04.676Z,2.04
2023-02-28T10:08:44.019Z,2.18
2023-02-28T10:11:17.764Z,2.34
2023-02-28T10:14:03.817Z,2.41
2023-02-28T10:16:39.821Z,2.49
2023-02-28T10:19:15.952Z,2.49
2023-02-28T10:21:59.337Z,2.62
2023-02-28T10:24:47.342Z,2.78
2023-02-28T10:27:23.154Z,2.91
2023-02-28T10:29:54.631Z,3.07
2023-02-28T10:32:46.656Z,3.30
2023-02-28T10:35:20.670Z,3.52
2023-02-28T10:37:57.455Z,3.57
2023-02-28T10:40:27.360Z,3.66
2023-02-28T10:43:04.961Z,3.84
2023-02-28T10:45:36.012Z,3.94
2023-02-28T10:48:16.872Z,4.13
2023-02-28T10:50:46.384Z,4.31
2023-02-28T10:53:27.190Z,4.36
2023-02-28T10:56:09.253Z,4.39
2023-02-28T10:58:52.993Z,4.49
2023-02-28T11:01:24.908Z,4.51
2023-02-28T11:03:53.747Z,4.55
2023-02-28T11:06:28.486Z,4.68
2023-02-28T11:08:59.222Z,4.86
2023-02-28T11:11:30.823Z,4.95
2023-02-28T11:14:06.001Z,4.98
2023-02-28T11:16:36.636Z,5.07
2023-02-28T11:19:08.004Z,5.19
2023-02-28T11:21:41.393Z,5.10
2023-02-28T11:24:24.916Z,5.00
2023-02-28T11:26:53.399Z,5.11
2023-02-28T11:29:48.210Z,5.33
2023-02-28T11:32:23.158Z,5.54
2023-02-28T11:35:19.060Z,5.61
2023-02-28T11:37:47.642Z,5.67
2023-02-28T11:40:17.846Z,5.51
2023-02-28T11:43:23.826Z,5.31
2023-02-28T11:46:07.557Z,5.17
2023-02-28T11:49:08.103Z,5.36
2023-02-28T11:51:43.446Z,5.55
2023-02-28T11:54:27.518Z,5.61
2023-02-28T11:57:10.520Z,5.69
2023-02-28T11:59:39.515Z,5.91
2023-02-28T12:02:10.735Z,6.18
2023-02-28T12:04:58.194Z,6.19
2023-02-28T12:07:40.605Z,6.27
2023-02-28T12:10:28.441Z,6.29
2023-02-28T12:13:18.836Z,6.30
2023-02-28T12:16:06.065Z,6.52
2023-02-28T12:18:47.147Z,6.62
2023-02-28T12:21:22.181Z,6.83
2023-02-28T12:24:11.955Z,7.10
2023-02-28T12:26:45.775Z,7.07
2023-02-28T12:29:21.834Z,6.92
2023-02-28T12:32:00.466Z,6.89
2023-02-28T12:34:32.739Z,6.98
2023-02-28T12:37:03.959Z,7.13
2023-02-28T12:39:48.598Z,7.37
2023-02-28T12:42:23.858Z,7.61
2023-02-28T12:45:14.481Z,7.81
2023-02-28T12:47:43.762Z,7.86
2023-02-28T12:50:15.215Z,7.61
2023-02-28T12:52:54.448Z,7.38
2023-02-28T12:55:45.250Z,7.38
2023-02-28T13:00:27.061Z,7.50
2023-02-28T13:03:31.484Z,7.21
2023-02-28T13:06:15.633Z,7.08
2023-02-28T13:08:50.056Z,7.08
2023-02-28T13:11:35.766Z,7.20
2023-02-28T13:14:21.437Z,7.61
2023-02-28T13:17:00.697Z,8.04
2023-02-28T13:19:31.805Z,8.17
2023-02-28T13:22:01.013Z,8.35
2023-02-28T13:24:43.858Z,8.41
2023-02-28T13:27:15.169Z,8.55
2023-02-28T13:29:45.695Z,8.74
2023-02-28T13:32:34.561Z,8.94
2023-02-28T13:35:02.938Z,9.05
2023-02-28T13:37:37.309Z,8.79
2023-02-28T13:40:11.884Z,8.38
2023-02-28T13:42:50.932Z,8.18
2023-02-28T13:45:31.523Z,8.39
2023-02-28T13:48:04.172Z,8.74
2023-02-28T13:50:39.820Z,9.14
2023-02-28T13:53:14.555Z,9.28
2023-02-28T13:55:44.881Z,8.96
2023-02-28T13:58:25.335Z,8.16
2023-02-28T14:01:23.078Z,7.28
2023-02-28T14:04:17.615Z,6.85
2023-02-28T14:06:50.119Z,6.68
2023-02-28T14:09:20.605Z,6.86
2023-02-28T14:11:52.669Z,7.07
2023-02-28T14:14:37.126Z,7.22
2023-02-28T14:17:10.944Z,7.31
2023-02-28T14:19:39.720Z,7.54
2023-02-28T14:22:46.838Z,7.92
2023-02-28T14:25:34.451Z,8.17
2023-02-28T14:28:41.234Z,8.35
2023-02-28T14:31:35.947Z,8.63
2023-02-28T14:34:27.786Z,8.62
2023-02-28T14:36:56.124Z,8.69
2023-02-28T14:39:25.786Z,9.01
2023-02-28T14:41:54.317Z,9.25
2023-02-28T14:44:27.000Z,9.53
2023-02-28T14:46:57.701Z,9.77
2023-02-28T14:49:25.921Z,9.95
2023-02-28T14:52:11.028Z,9.90
2023-02-28T14:54:40.078Z,9.76
2023-02-28T14:57:27.502Z,9.68
2023-02-28T15:00:23.225Z,9.70
2023-02-28T15:02:51.810Z,9.44
2023-02-28T15:05:23.155Z,9.15
2023-02-28T15:08:23.084Z,8.87
2023-02-28T15:10:52.887Z,8.50
2023-02-28T15:13:33.247Z,8.09
2023-02-28T15:16:04.072Z,7.74
2023-02-28T15:18:54.075Z,7.34
2023-02-28T15:21:26.274Z,6.66
2023-02-28T15:24:25.133Z,6.01
2023-02-28T15:27:01.513Z,5.30
2023-02-28T15:29:30.909Z,4.71
2023-02-28T15:32:05.771Z,4.21
2023-02-28T15:34:44.450Z,3.73
2023-02-28T15:37:42.578Z,3.32
2023-02-28T15:40:19.112Z,2.93
2023-02-28T15:43:07.561Z,2.63
2023-02-28T15:45:43.045Z,2.36
2023-02-28T15:48:18.861Z,2.13
2023-02-28T15:50:55.650Z,1.94
2023-02-28T15:53:26.790Z,1.77
2023-02-28T15:56:03.675Z,1.63
2023-02-28T15:58:32.450Z,1.49
2023-02-28T16:01:09.024Z,1.25
2023-02-28T16:03:43.136Z,1.05
2023-02-28T16:06:17.973Z,0.83
2023-02-28T16:08:46.759Z,0.71
2023-02-28T16:11:16.470Z,0.61
2023-02-28T16:13:44.958Z,0.50
2023-02-28T16:16:19.532Z,0.36
2023-02-28T16:18:48.062Z,0.26
2023-02-28T16:21:16.341Z,0.18
2023-02-28T16:23:45.029Z,0.10
2023-02-28T16:26:20.296Z,0.03
2023-02-28T16:28:49.061Z,-0.03
2023-02-28T16:31:17.956Z,-0.11
2023-02-28T16:33:46.643Z,-0.15
2023-02-28T16:36:19.920Z,-0.19
2023-02-28T16:38:51.700Z,-0.26
2023-02-28T16:41:22.441Z,-0.32
2023-02-28T16:43:51.605Z,-0.38
2023-02-28T16:46:21.084Z,-0.48
2023-02-28T16:48:52.779Z,-0.57
2023-02-28T16:51:23.031Z,-0.61
2023-02-28T16:53:57.498Z,-0.64
2023-02-28T16:56:28.813Z,-0.69
2023-02-28T16:59:00.971Z,-0.73
2023-02-28T17:01:33.891Z,-0.83
2023-02-28T17:04:03.390Z,-0.91
2023-02-28T17:06:33.717Z,-0.92
2023-02-28T17:09:05.070Z,-0.94
2023-02-28T17:11:35.487Z,-0.98
2023-02-28T17:14:05.591Z,-1.00
2023-02-28T17:16:48.775Z,-1.10
2023-02-28T17:19:22.311Z,-1.15
2023-02-28T17:21:52.499Z,-1.16
2023-02-28T17:24:30.867Z,-1.20
2023-02-28T17:27:02.553Z,-1.24
2023-02-28T17:29:32.498Z,-1.29
2023-02-28T17:32:17.331Z,-1.32
2023-02-28T17:34:47.420Z,-1.35
2023-02-28T17:37:17.597Z,-1.36
2023-02-28T17:39:46.444Z,-1.37
2023-02-28T17:42:17.586Z,-1.40
2023-02-28T17:44:46.274Z,-1.42
2023-02-28T17:47:14.758Z,-1.45
2023-02-28T17:49:43.965Z,-1.48
2023-02-28T17:52:12.447Z,-1.53
2023-02-28T17:54:41.643Z,-1.56
2023-02-28T17:57:14.546Z,-1.56
2023-02-28T17:59:44.141Z,-1.50
2023-02-28T18:02:13.850Z,-1.46
2023-02-28T18:04:47.556Z,-1.43
2023-02-28T18:07:16.870Z,-1.42
2023-02-28T18:09:45.553Z,-1.45
2023-02-28T18:12:14.035Z,-1.47
2023-02-28T18:14:43.648Z,-1.47
2023-02-28T18:17:13.461Z,-1.49
2023-02-28T18:19:44.397Z,-1.50
2023-02-28T18:22:13.194Z,-1.51
2023-02-28T18:24:41.571Z,-1.52
2023-02-28T18:27:11.383Z,-1.55
2023-02-28T18:29:41.848Z,-1.58
2023-02-28T18:32:10.576Z,-1.71
2023-02-28T18:34:38.990Z,-1.69
2023-02-28T18:37:07.468Z,-1.73
2023-02-28T18:39:35.953Z,-1.74
2023-02-28T18:42:04.645Z,-1.80
2023-02-28T18:44:33.330Z,-1.82
2023-02-28T18:47:02.475Z,-1.80
2023-02-28T18:49:35.932Z,-1.80
2023-02-28T18:52:04.656Z,-1.82
2023-02-28T18:54:33.404Z,-1.85
2023-02-28T18:57:01.719Z,-1.87
2023-02-28T18:59:30.370Z,-1.97
2023-02-28T19:01:58.857Z,-1.90
2023-02-28T19:04:27.286Z,-1.93
2023-02-28T19:06:55.618Z,-1.95
2023-02-28T19:09:24.000Z,-2.00
2023-02-28T19:11:52.384Z,-1.99
2023-02-28T19:14:22.102Z,-1.92
2023-02-28T19:16:52.300Z,-1.91
2023-02-28T19:19:20.803Z,-1.92
2023-02-28T19:21:49.596Z,-1.96
2023-02-28T19:24:20.079Z,-2.11
2023-02-28T19:26:48.715Z,-2.07
2023-02-28T19:29:17.097Z,-2.09
2023-02-28T19:31:46.293Z,-2.11
2023-02-28T19:34:16.112Z,-2.13
2023-02-28T19:36:44.907Z,-2.15
2023-02-28T19:39:13.901Z,-2.22
2023-02-28T19:41:42.385Z,-2.22
2023-02-28T19:44:10.770Z,-2.21
2023-02-28T19:46:44.709Z,-2.22
2023-02-28T19:49:13.065Z,-2.23
2023-02-28T19:51:41.853Z,-2.22
2023-02-28T19:54:13.208Z,-2.19
2023-02-28T19:56:42.204Z,-2.19
2023-02-28T19:59:21.081Z,-2.19
2023-02-28T20:01:54.940Z,-2.21
2023-02-28T20:04:24.490Z,-2.24
2023-02-28T20:06:55.724Z,-2.20
2023-02-28T20:09:24.494Z,-2.13
2023-02-28T20:11:59.567Z,-2.12
2023-02-28T20:14:28.122Z,-2.14
2023-02-28T20:16:59.633Z,-2.16
2023-02-28T20:19:28.258Z,-2.18
2023-02-28T20:21:56.950Z,-2.19
2023-02-28T20:24:26.252Z,-2.32
2023-02-28T20:26:55.542Z,-2.22
2023-02-28T20:29:24.559Z,-2.23
2023-02-28T20:31:53.865Z,-2.33
2023-02-28T20:34:23.671Z,-2.38
2023-02-28T20:36:52.360Z,-2.32
2023-02-28T20:39:20.746Z,-2.28
2023-02-28T20:41:49.328Z,-2.26
2023-02-28T20:44:20.065Z,-2.22
2023-02-28T20:46:48.556Z,-2.22
2023-02-28T20:49:17.254Z,-2.25
2023-02-28T20:51:45.735Z,-2.29
2023-02-28T20:54:16.179Z,-2.35
2023-02-28T20:56:44.945Z,-2.38
2023-02-28T20:59:13.428Z,-2.39
2023-02-28T21:01:44.561Z,-2.41
2023-02-28T21:04:13.011Z,-2.36
2023-02-28T21:06:47.732Z,-2.28
2023-02-28T21:09:18.539Z,-2.27
2023-02-28T21:11:46.912Z,-2.29
2023-02-28T21:14:17.136Z,-2.32
2023-02-28T21:16:47.364Z,-2.36
2023-02-28T21:19:15.952Z,-2.41
2023-02-28T21:21:44.791Z,-2.44
2023-02-28T21:24:14.736Z,-2.47
2023-02-28T21:26:44.600Z,-2.49
2023-02-28T21:29:13.590Z,-2.50
2023-02-28T21:31:42.378Z,-2.47
2023-02-28T21:34:12.613Z,-2.38
2023-02-28T21:36:45.930Z,-2.34
2023-02-28T21:39:17.340Z,-2.32
2023-02-28T21:41:46.637Z,-2.34
2023-02-28T21:44:19.112Z,-2.35
2023-02-28T21:46:49.194Z,-2.38
2023-02-28T21:49:17.937Z,-2.43
2023-02-28T21:51:47.353Z,-2.48
2023-02-28T21:54:15.717Z,-2.52
2023-02-28T21:56:44.712Z,-2.57
2023-02-28T21:59:13.300Z,-2.56
2023-02-28T22:01:44.193Z,-2.56
2023-02-28T22:04:25.324Z,-2.60
2023-02-28T22:06:59.643Z,-2.68
2023-02-28T22:09:28.125Z,-2.77
2023-02-28T22:11:57.585Z,-2.85
2023-02-28T22:14:26.535Z,-2.95
2023-02-28T22:17:01.026Z,-2.97
2023-02-28T22:19:29.644Z,-2.95
2023-02-28T22:21:58.019Z,-2.96
2023-02-28T22:24:26.516Z,-3.01
2023-02-28T22:26:54.998Z,-3.01
2023-02-28T22:29:23.799Z,-3.04
2023-02-28T22:31:52.213Z,-3.08
2023-02-28T22:34:20.851Z,-3.05
2023-02-28T22:36:49.646Z,-2.97
2023-02-28T22:39:18.232Z,-2.94
2023-02-28T22:41:46.619Z,-2.93
2023-02-28T22:44:25.227Z,-2.94
2023-02-28T22:46:54.514Z,-2.96
2023-02-28T22:49:23.016Z,-2.96
2023-02-28T22:51:52.116Z,-2.91
2023-02-28T22:54:20.698Z,-2.87
2023-02-28T22:56:50.424Z,-2.86
2023-02-28T22:59:19.305Z,-2.86
2023-02-28T23:01:48.015Z,-2.86
2023-02-28T23:04:17.129Z,-2.86
2023-02-28T23:06:45.867Z,-2.82
2023-02-28T23:09:18.356Z,-2.72
2023-02-28T23:11:50.392Z,-2.68
2023-02-28T23:14:20.369Z,-2.67
2023-02-28T23:16:52.420Z,-2.66
2023-02-28T23:19:26.834Z,-2.66
2023-02-28T23:21:56.035Z,-2.68
2023-02-28T23:24:25.960Z,-2.66
2023-02-28T23:26:56.616Z,-2.59
2023-02-28T23:29:27.939Z,-2.56
2023-02-28T23:31:56.442Z,-2.57
2023-02-28T23:34:32.386Z,-2.59
2023-02-28T23:37:01.986Z,-2.61
2023-02-28T23:39:30.777Z,-2.62
2023-02-28T23:41:59.798Z,-2.63
2023-02-28T23:44:28.261Z,-2.58
2023-02-28T23:46:56.646Z,-2.51
2023-02-28T23:49:26.081Z,-2.50
2023-02-28T23:51:54.783Z,-2.53
2023-02-28T23:54:24.854Z,-2.55
2023-02-28T23:56:54.371Z,-2.55
2023-02-28T23:59:22.957Z,-2.53
